Ashton, Maryland
Current Conditions -  °F | °C
As of 10:15 PM on Monday 26 Jan 2015 (Local Time) from KGAI Reporting Station
Overcast Overcast  
Wind Chill: -8°   Ceiling: 1600
Heat Index: -4°   Visibility: 2mi
Dew Point: -7°   Wind: 7mph
Humidity: 80%   Direction: 330°NNW
Pressure: 29.79"   Gusts: NA
Location:  39.15°N, 77.01°W
Report Text: KGAI 270315Z 33006KT 300V010 2SM SCT010 BKN016 OVC023 M04/M07 A2979 RMK AO1
Loading
Personal Weather Stations






























Interactive Weather Map New forecast layout! Learn more

10-Day Weather Forecast

Advertisements
Track Severe Weather on mobile